createdAt,value
2018-08-13T00:01:37.309Z,62.71
2018-08-13T00:04:05.736Z,62.86
2018-08-13T00:06:34.209Z,62.75
2018-08-13T00:09:02.753Z,63.39
2018-08-13T00:11:31.181Z,62.83
2018-08-13T00:13:59.667Z,63.37
2018-08-13T00:16:28.115Z,62.65
2018-08-13T00:18:56.554Z,62.84
2018-08-13T00:21:24.978Z,62.71
2018-08-13T00:23:53.362Z,61.59
2018-08-13T00:26:21.832Z,62.33
2018-08-13T00:28:50.296Z,62.44
2018-08-13T00:31:18.725Z,62.36
2018-08-13T00:33:47.142Z,63.27
2018-08-13T00:36:15.553Z,63.14
2018-08-13T00:38:44.013Z,62.73
2018-08-13T00:41:12.440Z,63.42
2018-08-13T00:43:40.852Z,62.87
2018-08-13T00:46:09.332Z,63.68
2018-08-13T00:48:37.788Z,63.02
2018-08-13T00:51:06.273Z,63.60
2018-08-13T00:53:34.724Z,62.43
2018-08-13T00:56:03.228Z,63.61
2018-08-13T00:58:31.699Z,64.55
2018-08-13T01:01:00.122Z,64.03
2018-08-13T01:03:28.608Z,64.92
2018-08-13T01:05:57.186Z,64.20
2018-08-13T01:08:25.636Z,64.74
2018-08-13T01:10:54.049Z,63.83
2018-08-13T01:13:22.476Z,63.75
2018-08-13T01:15:50.900Z,63.82
2018-08-13T01:18:19.316Z,64.22
2018-08-13T01:20:47.739Z,64.36
2018-08-13T01:23:16.232Z,64.96
2018-08-13T01:25:44.633Z,65.41
2018-08-13T01:28:13.052Z,64.86
2018-08-13T01:30:41.567Z,65.23
2018-08-13T01:33:10.012Z,65.92
2018-08-13T01:35:38.457Z,64.52
2018-08-13T01:38:06.885Z,65.97
2018-08-13T01:40:35.333Z,65.37
2018-08-13T01:43:03.784Z,65.55
2018-08-13T01:45:32.210Z,66.03
2018-08-13T01:48:00.645Z,65.54
2018-08-13T01:50:29.115Z,66.06
2018-08-13T01:52:57.543Z,65.58
2018-08-13T01:55:26.002Z,65.96
2018-08-13T01:57:54.466Z,64.97
2018-08-13T02:00:22.973Z,65.38
2018-08-13T02:02:51.444Z,65.66
2018-08-13T02:05:19.881Z,65.52
2018-08-13T02:07:48.342Z,66.01
2018-08-13T02:10:16.811Z,65.58
2018-08-13T02:12:45.276Z,65.37
2018-08-13T02:15:13.727Z,65.42
2018-08-13T02:17:42.191Z,65.13
2018-08-13T02:20:11.476Z,64.38
2018-08-13T02:22:39.916Z,65.10
2018-08-13T02:25:08.960Z,65.87
2018-08-13T02:27:37.530Z,65.25
2018-08-13T02:30:08.371Z,65.53
2018-08-13T02:32:36.933Z,64.44
2018-08-13T02:35:06.382Z,65.03
2018-08-13T02:37:34.840Z,65.07
2018-08-13T02:40:03.279Z,65.50
2018-08-13T02:42:31.738Z,65.36
2018-08-13T02:45:00.139Z,64.68
2018-08-13T02:47:28.576Z,64.98
2018-08-13T02:49:57.014Z,65.71
2018-08-13T02:52:25.477Z,65.28
2018-08-13T02:54:53.942Z,65.02
2018-08-13T02:57:22.389Z,65.54
2018-08-13T02:59:51.391Z,65.57
2018-08-13T03:02:19.806Z,65.90
2018-08-13T03:04:48.336Z,67.22
2018-08-13T03:07:16.795Z,66.82
2018-08-13T03:09:45.280Z,66.47
2018-08-13T03:12:13.711Z,66.94
2018-08-13T03:14:42.129Z,66.50
2018-08-13T03:17:12.099Z,66.45
2018-08-13T03:19:40.568Z,65.94
2018-08-13T03:22:08.981Z,66.49
2018-08-13T03:24:37.780Z,65.33
2018-08-13T03:27:06.313Z,67.14
2018-08-13T03:29:34.781Z,64.01
2018-08-13T03:32:03.488Z,63.61
2018-08-13T03:34:31.928Z,64.76
2018-08-13T03:37:00.416Z,64.14
2018-08-13T03:39:28.925Z,64.52
2018-08-13T03:41:57.361Z,64.28
2018-08-13T03:44:25.811Z,63.24
2018-08-13T03:46:54.194Z,62.80
2018-08-13T03:49:22.624Z,62.28
2018-08-13T03:51:51.080Z,61.33
2018-08-13T03:54:19.530Z,61.84
2018-08-13T03:56:48.052Z,60.90
2018-08-13T03:59:16.506Z,60.42
2018-08-13T04:01:45.005Z,59.89
2018-08-13T04:04:13.481Z,60.49
2018-08-13T04:06:41.950Z,59.86
2018-08-13T04:09:10.344Z,59.40
2018-08-13T04:11:39.440Z,60.40
2018-08-13T04:14:08.901Z,60.70
2018-08-13T04:16:38.543Z,61.90
2018-08-13T04:19:07.726Z,61.66
2018-08-13T04:21:36.428Z,62.31
2018-08-13T04:24:04.941Z,64.51
2018-08-13T04:26:33.410Z,65.00
2018-08-13T04:29:01.882Z,65.90
2018-08-13T04:31:30.334Z,70.43
2018-08-13T04:33:58.754Z,71.22
2018-08-13T04:36:27.193Z,73.13
2018-08-13T04:38:56.257Z,73.67
2018-08-13T04:41:24.716Z,74.81
2018-08-13T04:43:53.116Z,75.26
2018-08-13T04:46:21.589Z,76.00
2018-08-13T04:48:50.044Z,74.12
2018-08-13T04:51:18.528Z,74.92
2018-08-13T04:53:46.993Z,76.94
2018-08-13T04:56:15.449Z,78.29
2018-08-13T04:58:43.903Z,78.69
2018-08-13T05:01:12.352Z,77.31
2018-08-13T05:03:40.857Z,78.85
2018-08-13T05:06:09.379Z,80.04
2018-08-13T05:08:37.944Z,78.64
2018-08-13T05:11:06.348Z,79.14
2018-08-13T05:13:34.827Z,79.79
2018-08-13T05:16:03.281Z,80.15
2018-08-13T05:18:31.774Z,80.47
2018-08-13T05:21:00.233Z,81.07
2018-08-13T05:23:28.641Z,80.28
2018-08-13T05:25:57.100Z,80.45
2018-08-13T05:28:25.596Z,81.01
2018-08-13T05:30:54.089Z,81.43
2018-08-13T05:33:22.569Z,80.72
2018-08-13T05:35:51.032Z,80.48
2018-08-13T05:38:19.528Z,80.16
2018-08-13T05:40:47.922Z,80.80
2018-08-13T05:43:16.428Z,80.81
2018-08-13T05:45:44.869Z,79.81
2018-08-13T05:48:13.310Z,80.29
2018-08-13T05:50:41.776Z,80.62
2018-08-13T05:53:10.296Z,81.18
2018-08-13T05:55:38.701Z,81.90
2018-08-13T05:58:07.188Z,81.42
2018-08-13T06:00:35.642Z,82.58
2018-08-13T06:03:04.175Z,82.39
2018-08-13T06:05:32.544Z,82.31
2018-08-13T06:08:01.028Z,82.94
2018-08-13T06:10:29.470Z,83.53
2018-08-13T06:12:58.006Z,82.68
2018-08-13T06:15:26.417Z,83.26
2018-08-13T06:17:54.825Z,82.69
2018-08-13T06:20:23.271Z,82.25
2018-08-13T06:22:51.703Z,82.67
2018-08-13T06:25:20.106Z,82.74
2018-08-13T06:27:48.538Z,82.94
2018-08-13T06:30:17.003Z,82.94
2018-08-13T06:32:45.464Z,83.61
2018-08-13T06:35:14.690Z,83.62
2018-08-13T06:37:43.818Z,83.83
2018-08-13T06:40:12.728Z,84.48
2018-08-13T06:42:41.203Z,84.79
2018-08-13T06:45:10.600Z,84.39
2018-08-13T06:47:39.822Z,84.52
2018-08-13T06:50:10.471Z,85.47
2018-08-13T06:52:38.928Z,85.13
2018-08-13T06:55:07.507Z,85.34
2018-08-13T06:57:36.391Z,84.55
2018-08-13T07:00:07.519Z,84.83
2018-08-13T07:02:35.941Z,84.57
2018-08-13T07:05:05.002Z,84.87
2018-08-13T07:07:33.501Z,85.16
2018-08-13T07:10:01.906Z,84.91
2018-08-13T07:12:30.405Z,85.49
2018-08-13T07:14:59.281Z,84.92
2018-08-13T07:17:28.584Z,84.76
2018-08-13T07:19:57.063Z,84.30
2018-08-13T07:22:25.633Z,84.92
2018-08-13T07:24:54.001Z,84.85
2018-08-13T07:27:22.433Z,85.26
2018-08-13T07:29:51.419Z,84.83
2018-08-13T07:32:19.955Z,84.91
2018-08-13T07:34:48.684Z,85.23
2018-08-13T07:37:17.148Z,85.10
2018-08-13T07:39:45.555Z,84.67
2018-08-13T07:42:14.256Z,85.15
2018-08-13T07:44:42.712Z,85.19
2018-08-13T07:47:11.920Z,83.76
2018-08-13T07:49:40.544Z,84.04
2018-08-13T07:52:09.089Z,84.38
2018-08-13T07:54:37.565Z,84.26
2018-08-13T07:57:06.001Z,84.73
2018-08-13T07:59:34.568Z,84.38
2018-08-13T08:02:03.059Z,83.96
2018-08-13T08:04:31.556Z,84.26
2018-08-13T08:07:00.482Z,85.10
2018-08-13T08:09:29.114Z,85.57
2018-08-13T08:11:57.643Z,85.67
2018-08-13T08:14:26.150Z,86.19
2018-08-13T08:16:54.620Z,86.12
2018-08-13T08:19:23.186Z,85.91
2018-08-13T08:21:51.644Z,85.99
2018-08-13T08:24:20.125Z,86.27
2018-08-13T08:26:48.716Z,86.48
2018-08-13T08:29:17.177Z,86.68
2018-08-13T08:31:45.658Z,87.17
2018-08-13T08:34:14.134Z,86.95
2018-08-13T08:36:42.608Z,87.10
2018-08-13T08:39:13.279Z,86.55
2018-08-13T08:41:41.874Z,86.62
2018-08-13T08:44:10.974Z,86.56
2018-08-13T08:46:39.951Z,86.38
2018-08-13T08:49:08.652Z,86.76
2018-08-13T08:51:38.432Z,86.51
2018-08-13T08:54:07.224Z,87.10
2018-08-13T08:56:35.837Z,86.68
2018-08-13T08:59:04.592Z,86.90
2018-08-13T09:01:33.724Z,87.14
2018-08-13T09:04:02.214Z,86.26
2018-08-13T09:06:30.734Z,86.96
2018-08-13T09:08:59.249Z,87.50
2018-08-13T09:11:27.730Z,87.39
2018-08-13T09:13:56.342Z,85.82
2018-08-13T09:16:24.832Z,86.36
2018-08-13T09:19:04.515Z,86.03
2018-08-13T09:21:36.124Z,86.23
2018-08-13T09:24:16.552Z,86.98
2018-08-13T09:26:56.276Z,86.15
2018-08-13T09:29:36.035Z,85.63
2018-08-13T09:32:26.930Z,85.90
2018-08-13T09:35:02.409Z,86.39
2018-08-13T09:37:30.923Z,85.72
2018-08-13T09:39:59.316Z,86.92
2018-08-13T09:42:27.847Z,87.63
2018-08-13T09:44:56.284Z,87.63
2018-08-13T09:47:25.002Z,88.10
2018-08-13T09:49:53.497Z,88.01
2018-08-13T09:52:21.947Z,87.76
2018-08-13T09:54:50.434Z,88.12
2018-08-13T09:57:18.942Z,87.93
2018-08-13T09:59:47.434Z,87.86
2018-08-13T10:02:15.876Z,88.36
2018-08-13T10:04:44.320Z,88.05
2018-08-13T10:07:12.704Z,88.83
2018-08-13T10:09:41.168Z,88.10
2018-08-13T10:12:09.701Z,88.64
2018-08-13T10:14:38.093Z,87.23
2018-08-13T10:17:06.531Z,87.25
2018-08-13T10:19:34.946Z,88.32
2018-08-13T10:22:03.408Z,87.34
2018-08-13T10:24:31.820Z,86.78
2018-08-13T10:27:00.380Z,87.27
2018-08-13T10:29:28.793Z,86.84
2018-08-13T10:31:57.364Z,86.65
2018-08-13T10:34:25.870Z,86.72
2018-08-13T10:36:54.345Z,86.75
2018-08-13T10:39:22.772Z,84.50
2018-08-13T10:41:51.229Z,84.89
2018-08-13T10:44:19.786Z,85.20
2018-08-13T10:46:48.172Z,85.39
2018-08-13T10:49:17.506Z,84.75
2018-08-13T10:51:45.941Z,85.71
2018-08-13T10:54:14.416Z,85.30
2018-08-13T10:56:42.905Z,85.68
2018-08-13T10:59:11.378Z,84.16
2018-08-13T11:01:40.041Z,83.53
2018-08-13T11:04:08.497Z,84.11
2018-08-13T11:06:36.985Z,83.55
2018-08-13T11:09:08.348Z,82.37
2018-08-13T11:11:38.467Z,82.38
2018-08-13T11:14:06.997Z,81.87
2018-08-13T11:16:35.453Z,80.82
2018-08-13T11:19:04.145Z,82.49
2018-08-13T11:21:33.029Z,81.24
2018-08-13T11:24:01.482Z,80.24
2018-08-13T11:26:29.960Z,80.42
2018-08-13T11:28:58.470Z,80.68
2018-08-13T11:31:27.002Z,79.19
2018-08-13T11:33:55.462Z,78.64
2018-08-13T11:36:23.924Z,78.61
2018-08-13T11:38:52.423Z,78.98
2018-08-13T11:41:20.929Z,78.33
2018-08-13T11:43:49.533Z,78.15
2018-08-13T11:46:18.198Z,78.01
2018-08-13T11:48:46.617Z,77.38
2018-08-13T11:51:15.160Z,76.61
2018-08-13T11:53:43.677Z,76.84
2018-08-13T11:56:12.117Z,75.95
2018-08-13T11:58:40.651Z,75.57
2018-08-13T12:01:09.303Z,76.83
2018-08-13T12:03:37.595Z,76.11
2018-08-13T12:06:06.079Z,76.78
2018-08-13T12:08:34.543Z,76.13
2018-08-13T12:11:02.963Z,75.59
2018-08-13T12:13:31.360Z,76.07
2018-08-13T12:15:59.836Z,78.05
2018-08-13T12:18:29.147Z,76.89
2018-08-13T12:20:57.584Z,76.86
2018-08-13T12:23:26.235Z,78.85
2018-08-13T12:25:54.654Z,82.82
2018-08-13T12:28:23.136Z,82.12
2018-08-13T12:30:51.614Z,83.99
2018-08-13T12:33:20.029Z,86.35
2018-08-13T12:35:48.517Z,87.34
2018-08-13T12:38:16.937Z,88.05
2018-08-13T12:40:45.457Z,87.07
2018-08-13T12:43:13.992Z,86.79
2018-08-13T12:45:42.386Z,89.43
2018-08-13T12:48:10.870Z,90.56
2018-08-13T12:50:39.300Z,90.39
2018-08-13T12:53:07.916Z,91.14
2018-08-13T12:55:36.447Z,91.05
2018-08-13T12:58:05.083Z,91.26
2018-08-13T13:00:33.548Z,90.92
2018-08-13T13:03:02.053Z,91.18
2018-08-13T13:05:30.564Z,89.68
2018-08-13T13:07:58.980Z,90.25
2018-08-13T13:10:27.403Z,90.49
2018-08-13T13:12:55.900Z,89.03
2018-08-13T13:15:24.356Z,88.58
2018-08-13T13:17:52.843Z,88.32
2018-08-13T13:20:22.518Z,88.63
2018-08-13T13:22:51.448Z,87.15
2018-08-13T13:25:20.272Z,87.03
2018-08-13T13:27:48.797Z,88.10
2018-08-13T13:30:17.793Z,84.45
2018-08-13T13:32:46.499Z,84.67
2018-08-13T13:35:16.419Z,84.71
2018-08-13T13:37:44.880Z,86.93
2018-08-13T13:40:15.606Z,88.01
2018-08-13T13:42:44.079Z,88.63
2018-08-13T13:45:13.157Z,88.23
2018-08-13T13:47:41.592Z,87.35
2018-08-13T13:50:12.400Z,85.01
2018-08-13T13:52:40.803Z,86.25
2018-08-13T13:55:09.993Z,85.37
2018-08-13T13:57:38.524Z,85.85
2018-08-13T14:00:10.949Z,85.47
2018-08-13T14:02:39.452Z,86.23
2018-08-13T14:05:07.903Z,86.26
2018-08-13T14:07:36.404Z,86.31
2018-08-13T14:10:06.017Z,86.87
2018-08-13T14:12:34.464Z,84.94
2018-08-13T14:15:02.936Z,82.88
2018-08-13T14:17:31.435Z,86.44
2018-08-13T14:19:59.899Z,88.05
2018-08-13T14:22:28.355Z,88.36
2018-08-13T14:24:56.881Z,89.51
2018-08-13T14:27:25.416Z,88.86
2018-08-13T14:29:53.913Z,90.24
2018-08-13T14:32:22.404Z,89.97
2018-08-13T14:34:50.922Z,90.57
2018-08-13T14:37:19.353Z,89.76
2018-08-13T14:39:47.876Z,89.44
2018-08-13T14:42:16.570Z,90.20
2018-08-13T14:44:45.034Z,90.25
2018-08-13T14:47:13.580Z,89.96
2018-08-13T14:49:42.039Z,90.03
2018-08-13T14:52:10.506Z,89.66
2018-08-13T14:54:38.989Z,91.59
2018-08-13T14:57:07.459Z,91.80
2018-08-13T14:59:35.996Z,91.49
2018-08-13T15:02:04.471Z,91.91
2018-08-13T15:04:32.983Z,92.67
2018-08-13T15:07:01.459Z,91.74
2018-08-13T15:09:30.561Z,92.44
2018-08-13T15:11:58.969Z,92.74
2018-08-13T15:14:27.573Z,92.54
2018-08-13T15:16:56.085Z,91.47
2018-08-13T15:19:24.642Z,92.66
2018-08-13T15:21:53.084Z,92.33
2018-08-13T15:24:21.601Z,91.50
2018-08-13T15:26:50.053Z,92.31
2018-08-13T15:29:18.603Z,92.43
2018-08-13T15:31:47.064Z,91.83
2018-08-13T15:34:15.540Z,92.36
2018-08-13T15:36:43.992Z,91.36
2018-08-13T15:39:13.296Z,91.66
2018-08-13T15:41:41.753Z,91.76
2018-08-13T15:44:10.164Z,90.92
2018-08-13T15:46:38.685Z,92.32
2018-08-13T15:49:07.159Z,92.30
2018-08-13T15:51:35.605Z,91.64
2018-08-13T15:54:04.102Z,90.92
2018-08-13T15:56:32.509Z,91.00
2018-08-13T15:59:00.954Z,88.94
2018-08-13T16:01:29.441Z,88.98
2018-08-13T16:03:57.872Z,89.24
2018-08-13T16:06:26.294Z,87.18
2018-08-13T16:08:54.729Z,87.02
2018-08-13T16:11:23.588Z,88.44
2018-08-13T16:13:52.180Z,89.07
2018-08-13T16:16:20.640Z,89.43
2018-08-13T16:18:49.238Z,89.71
2018-08-13T16:21:17.723Z,89.92
2018-08-13T16:23:46.179Z,90.01
2018-08-13T16:26:14.645Z,90.20
2018-08-13T16:28:43.135Z,89.08
2018-08-13T16:31:11.606Z,90.69
2018-08-13T16:33:40.112Z,91.72
2018-08-13T16:36:10.718Z,91.65
2018-08-13T16:38:39.223Z,91.44
2018-08-13T16:41:07.920Z,91.50
2018-08-13T16:46:19.785Z,92.13
2018-08-13T16:48:48.213Z,92.07
2018-08-13T16:51:16.755Z,91.80
2018-08-13T16:53:45.244Z,90.90
2018-08-13T16:56:13.725Z,91.60
2018-08-13T16:58:42.224Z,91.43
2018-08-13T17:01:10.672Z,89.21
2018-08-13T17:03:39.143Z,89.44
2018-08-13T17:06:07.699Z,90.06
2018-08-13T17:08:36.183Z,86.54
2018-08-13T17:11:04.660Z,88.75
2018-08-13T17:13:33.124Z,88.93
2018-08-13T17:16:01.633Z,89.35
2018-08-13T17:18:30.401Z,89.91
2018-08-13T17:20:58.958Z,89.83
2018-08-13T17:23:27.463Z,89.78
2018-08-13T17:25:55.921Z,90.25
2018-08-13T17:28:24.360Z,90.02
2018-08-13T17:30:53.132Z,89.94
2018-08-13T17:33:21.578Z,89.78
2018-08-13T17:35:50.355Z,90.71
2018-08-13T17:38:18.845Z,89.55
2018-08-13T17:40:47.331Z,89.59
2018-08-13T17:43:16.001Z,86.01
2018-08-13T17:45:44.386Z,87.35
2018-08-13T17:48:12.865Z,87.34
2018-08-13T17:50:41.380Z,88.72
2018-08-13T17:53:11.601Z,88.40
2018-08-13T17:55:40.264Z,88.17
2018-08-13T17:58:08.838Z,88.82
2018-08-13T18:00:37.312Z,87.23
2018-08-13T18:03:06.013Z,88.73
2018-08-13T18:05:34.493Z,89.55
2018-08-13T18:08:03.084Z,88.78
2018-08-13T18:10:32.832Z,87.97
2018-08-13T18:13:02.766Z,89.62
2018-08-13T18:15:31.385Z,89.61
2018-08-13T18:17:59.918Z,90.17
2018-08-13T18:20:28.406Z,90.49
2018-08-13T18:22:56.915Z,91.15
2018-08-13T18:25:25.378Z,90.68
2018-08-13T18:27:53.873Z,90.75
2018-08-13T18:30:24.400Z,91.01
2018-08-13T18:32:53.393Z,89.93
2018-08-13T18:35:21.888Z,90.89
2018-08-13T18:37:50.378Z,89.27
2018-08-13T18:40:24.454Z,89.79
2018-08-13T18:42:53.179Z,88.51
2018-08-13T18:45:21.675Z,88.73
2018-08-13T18:47:50.589Z,87.66
2018-08-13T18:50:21.010Z,88.18
2018-08-13T18:52:49.437Z,88.83
2018-08-13T18:55:20.078Z,89.46
2018-08-13T18:57:49.010Z,90.78
2018-08-13T19:00:18.964Z,90.96
2018-08-13T19:02:47.682Z,91.11
2018-08-13T19:05:17.536Z,91.88
2018-08-13T19:07:46.619Z,91.96
2018-08-13T19:10:15.940Z,91.22
2018-08-13T19:12:44.420Z,91.15
2018-08-13T19:15:15.444Z,91.70
2018-08-13T19:17:44.040Z,92.19
2018-08-13T19:20:13.508Z,92.36
2018-08-13T19:22:42.288Z,92.12
2018-08-13T19:25:28.979Z,92.40
2018-08-13T19:27:57.461Z,92.41
2018-08-13T19:30:26.484Z,91.46
2018-08-13T19:32:55.322Z,91.65
2018-08-13T19:35:23.724Z,91.04
2018-08-13T19:37:52.251Z,91.59
2018-08-13T19:40:22.640Z,91.17
2018-08-13T19:42:51.468Z,91.88
2018-08-13T19:45:20.760Z,92.23
2018-08-13T19:47:49.805Z,92.59
2018-08-13T19:50:19.167Z,92.89
2018-08-13T19:52:48.636Z,92.89
2018-08-13T19:55:17.757Z,92.09
2018-08-13T19:57:46.275Z,92.14
2018-08-13T20:00:17.855Z,90.92
2018-08-13T20:02:46.857Z,90.43
2018-08-13T20:05:15.371Z,88.48
2018-08-13T20:07:43.799Z,88.72
2018-08-13T20:10:13.630Z,89.16
2018-08-13T20:12:42.713Z,90.10
2018-08-13T20:15:11.540Z,89.54
2018-08-13T20:17:40.217Z,90.95
2018-08-13T20:20:11.321Z,91.13
2018-08-13T20:22:39.798Z,91.42
2018-08-13T20:25:09.899Z,91.88
2018-08-13T20:27:38.712Z,90.78
2018-08-13T20:30:09.108Z,91.98
2018-08-13T20:32:37.611Z,91.67
2018-08-13T20:35:06.059Z,91.01
2018-08-13T20:37:34.571Z,92.37
2018-08-13T20:40:03.080Z,92.32
2018-08-13T20:42:31.521Z,92.61
2018-08-13T20:45:00.415Z,92.24
2018-08-13T20:47:28.968Z,92.88
2018-08-13T20:49:57.462Z,92.55
2018-08-13T20:52:26.012Z,92.50
2018-08-13T20:54:55.136Z,92.59
2018-08-13T20:57:24.204Z,93.01
2018-08-13T20:59:52.661Z,92.92
2018-08-13T21:02:21.127Z,93.27
2018-08-13T21:04:49.621Z,93.38
2018-08-13T21:07:18.153Z,92.74
2018-08-13T21:09:46.622Z,92.91
2018-08-13T21:12:15.605Z,93.63
2018-08-13T21:14:44.080Z,93.52
2018-08-13T21:17:12.531Z,93.67
2018-08-13T21:19:40.994Z,93.47
2018-08-13T21:22:09.581Z,93.09
2018-08-13T21:24:40.173Z,93.12
2018-08-13T21:27:08.583Z,93.83
2018-08-13T21:29:37.004Z,93.84
2018-08-13T21:32:05.892Z,93.45
2018-08-13T21:34:34.364Z,94.12
2018-08-13T21:37:02.805Z,94.22
2018-08-13T21:39:31.298Z,93.32
2018-08-13T21:41:59.776Z,93.63
2018-08-13T21:44:28.281Z,93.27
2018-08-13T21:46:56.797Z,93.55
2018-08-13T21:49:25.264Z,93.29
2018-08-13T21:51:53.688Z,93.93
2018-08-13T21:54:22.193Z,93.59
2018-08-13T21:56:50.629Z,93.47
2018-08-13T21:59:19.063Z,93.89
2018-08-13T22:01:48.145Z,93.31
2018-08-13T22:04:18.056Z,93.92
2018-08-13T22:06:47.069Z,94.20
2018-08-13T22:09:15.569Z,93.65
2018-08-13T22:11:43.997Z,94.01
2018-08-13T22:14:12.499Z,93.69
2018-08-13T22:16:40.941Z,94.36
2018-08-13T22:19:10.273Z,93.67
2018-08-13T22:21:38.719Z,94.23
2018-08-13T22:24:18.324Z,94.23
2018-08-13T22:26:46.762Z,94.13
2018-08-13T22:29:15.168Z,93.97
2018-08-13T22:31:43.657Z,93.22
2018-08-13T22:34:12.173Z,94.33
2018-08-13T22:36:40.671Z,93.52
2018-08-13T22:39:09.847Z,93.20
2018-08-13T22:41:38.424Z,93.44
2018-08-13T22:44:07.008Z,93.68
2018-08-13T22:46:35.656Z,94.02
2018-08-13T22:49:04.239Z,93.80
2018-08-13T22:51:32.760Z,93.76
2018-08-13T22:54:01.257Z,93.66
2018-08-13T22:56:29.702Z,93.88
2018-08-13T22:58:58.167Z,93.12
2018-08-13T23:01:26.584Z,93.18
2018-08-13T23:03:55.349Z,93.38
2018-08-13T23:06:23.821Z,93.39
2018-08-13T23:08:52.274Z,92.26
2018-08-13T23:11:20.732Z,92.11
2018-08-13T23:13:49.128Z,92.05
2018-08-13T23:16:17.652Z,92.85
2018-08-13T23:18:46.023Z,91.83
2018-08-13T23:21:14.444Z,92.04
2018-08-13T23:23:42.963Z,92.58
2018-08-13T23:26:11.386Z,92.27
2018-08-13T23:28:39.869Z,91.76
2018-08-13T23:31:08.300Z,92.53
2018-08-13T23:33:36.776Z,91.53
2018-08-13T23:36:05.231Z,91.59
2018-08-13T23:38:33.643Z,91.18
2018-08-13T23:41:02.133Z,91.78
2018-08-13T23:43:31.396Z,92.38
2018-08-13T23:45:59.849Z,91.27
2018-08-13T23:48:28.304Z,91.68
2018-08-13T23:50:56.800Z,91.80
2018-08-13T23:53:25.307Z,92.32
2018-08-13T23:55:54.033Z,91.17
2018-08-13T23:58:22.575Z,91.76
